createdAt,value
2019-03-23T00:01:19.204Z,1.50
2019-03-23T00:03:47.830Z,1.50
2019-03-23T00:06:16.251Z,1.50
2019-03-23T00:08:44.723Z,1.50
2019-03-23T00:11:13.130Z,1.40
2019-03-23T00:13:41.634Z,1.40
2019-03-23T00:16:10.065Z,1.30
2019-03-23T00:18:38.455Z,1.30
2019-03-23T00:21:06.850Z,1.30
2019-03-23T00:23:35.290Z,1.30
2019-03-23T00:26:03.695Z,1.30
2019-03-23T00:28:32.095Z,1.30
2019-03-23T00:31:00.790Z,1.20
2019-03-23T00:33:29.230Z,1.20
2019-03-23T00:35:57.715Z,1.20
2019-03-23T00:38:26.162Z,1.20
2019-03-23T00:40:54.562Z,1.20
2019-03-23T00:43:23.079Z,1.10
2019-03-23T00:45:51.491Z,1.10
2019-03-23T00:48:19.887Z,1.10
2019-03-23T00:50:48.296Z,1.00
2019-03-23T00:53:17.052Z,1.00
2019-03-23T00:55:45.550Z,1.00
2019-03-23T00:58:13.966Z,0.90
2019-03-23T01:00:42.430Z,0.90
2019-03-23T01:03:10.850Z,1.00
2019-03-23T01:05:39.695Z,1.00
2019-03-23T01:08:08.132Z,1.00
2019-03-23T01:10:36.806Z,0.90
2019-03-23T01:13:05.284Z,0.90
2019-03-23T01:15:33.791Z,0.90
2019-03-23T01:18:02.256Z,0.90
2019-03-23T01:20:30.670Z,0.80
2019-03-23T01:22:59.234Z,0.90
2019-03-23T01:25:27.633Z,0.80
2019-03-23T01:27:56.378Z,0.80
2019-03-23T01:30:24.778Z,0.80
2019-03-23T01:32:53.489Z,0.80
2019-03-23T01:35:21.943Z,0.80
2019-03-23T01:37:50.343Z,0.70
2019-03-23T01:40:19.025Z,0.70
2019-03-23T01:42:47.415Z,0.70
2019-03-23T01:45:16.083Z,0.70
2019-03-23T01:47:44.496Z,0.60
2019-03-23T01:50:13.072Z,0.60
2019-03-23T01:52:41.487Z,0.50
2019-03-23T01:55:10.387Z,0.50
2019-03-23T01:57:38.786Z,0.50
2019-03-23T02:00:28.152Z,0.50
2019-03-23T02:02:56.551Z,0.50
2019-03-23T02:05:25.118Z,0.50
2019-03-23T02:07:53.531Z,0.50
2019-03-23T02:10:21.948Z,0.50
2019-03-23T02:12:50.345Z,0.50
2019-03-23T02:15:18.742Z,0.50
2019-03-23T02:17:47.143Z,0.50
2019-03-23T02:20:15.915Z,0.50
2019-03-23T02:22:44.302Z,0.50
2019-03-23T02:25:13.042Z,0.50
2019-03-23T02:27:41.506Z,0.50
2019-03-23T02:30:11.477Z,0.50
2019-03-23T02:32:39.882Z,0.50
2019-03-23T02:35:09.208Z,0.50
2019-03-23T02:37:37.688Z,0.50
2019-03-23T02:40:07.733Z,0.50
2019-03-23T02:42:36.134Z,0.40
2019-03-23T02:45:09.629Z,0.40
2019-03-23T02:47:38.017Z,0.40
2019-03-23T02:50:07.770Z,0.40
2019-03-23T02:52:36.707Z,0.30
2019-03-23T02:55:08.654Z,0.30
2019-03-23T02:57:37.052Z,0.30
2019-03-23T03:00:11.207Z,0.30
2019-03-23T03:02:39.609Z,0.20
2019-03-23T03:05:09.181Z,0.30
2019-03-23T03:07:42.545Z,0.20
2019-03-23T03:10:10.476Z,0.20
2019-03-23T03:12:38.941Z,0.20
2019-03-23T03:15:08.172Z,0.20
2019-03-23T03:17:36.685Z,0.20
2019-03-23T03:20:07.667Z,0.10
2019-03-23T03:22:36.061Z,0.10
2019-03-23T03:25:06.515Z,0.10
2019-03-23T03:27:34.918Z,0.10
2019-03-23T03:30:03.786Z,0.00
2019-03-23T03:32:32.205Z,0.00
2019-03-23T03:35:00.780Z,0.00
2019-03-23T03:37:29.291Z,0.00
2019-03-23T03:39:57.699Z,0.00
2019-03-23T03:42:26.118Z,0.00
2019-03-23T03:44:54.535Z,0.00
2019-03-23T03:47:22.988Z,0.00
2019-03-23T03:49:51.639Z,-0.10
2019-03-23T03:52:20.106Z,-0.10
2019-03-23T03:54:48.508Z,0.00
2019-03-23T03:57:16.920Z,-0.10
2019-03-23T03:59:45.319Z,-0.10
2019-03-23T04:02:14.185Z,-0.10
2019-03-23T04:04:42.582Z,-0.10
2019-03-23T04:07:10.996Z,-0.10
2019-03-23T04:09:40.505Z,-0.10
2019-03-23T04:12:09.067Z,-0.10
2019-03-23T04:14:37.470Z,-0.10
2019-03-23T04:17:06.119Z,-0.10
2019-03-23T04:19:34.524Z,-0.10
2019-03-23T04:22:03.006Z,-0.10
2019-03-23T04:24:31.507Z,-0.10
2019-03-23T04:27:01.619Z,-0.20
2019-03-23T04:29:30.020Z,-0.20
2019-03-23T04:31:58.441Z,-0.20
2019-03-23T04:34:26.881Z,-0.20
2019-03-23T04:36:55.424Z,-0.20
2019-03-23T04:39:24.016Z,-0.30
2019-03-23T04:41:52.422Z,-0.30
2019-03-23T04:44:20.819Z,-0.30
2019-03-23T04:46:49.259Z,-0.30
2019-03-23T04:49:17.729Z,-0.30
2019-03-23T04:51:46.149Z,-0.30
2019-03-23T04:54:14.808Z,-0.30
2019-03-23T04:56:43.206Z,-0.40
2019-03-23T04:59:11.606Z,-0.40
2019-03-23T05:01:40.424Z,-0.40
2019-03-23T05:04:09.741Z,-0.50
2019-03-23T05:06:38.179Z,-0.50
2019-03-23T05:09:08.610Z,-0.50
2019-03-23T05:11:37.020Z,-0.60
2019-03-23T05:14:05.432Z,-0.60
2019-03-23T05:16:33.907Z,-0.60
2019-03-23T05:19:02.309Z,-0.60
2019-03-23T05:21:30.748Z,-0.60
2019-03-23T05:23:59.147Z,-0.60
2019-03-23T05:26:27.611Z,-0.60
2019-03-23T05:28:56.014Z,-0.60
2019-03-23T05:31:24.415Z,-0.50
2019-03-23T05:33:53.061Z,-0.50
2019-03-23T05:36:21.458Z,-0.40
2019-03-23T05:38:50.104Z,-0.40
2019-03-23T05:41:18.722Z,-0.40
2019-03-23T05:43:47.184Z,-0.40
2019-03-23T05:46:15.588Z,-0.40
2019-03-23T05:48:44.004Z,-0.30
2019-03-23T05:51:12.406Z,-0.30
2019-03-23T05:53:41.110Z,-0.30
2019-03-23T05:56:09.515Z,-0.20
2019-03-23T05:58:37.963Z,-0.20
2019-03-23T06:01:06.807Z,-0.10
2019-03-23T06:03:35.219Z,0.00
2019-03-23T06:06:03.966Z,0.10
2019-03-23T06:08:32.365Z,0.20
2019-03-23T06:11:00.857Z,0.30
2019-03-23T06:13:29.251Z,0.30
2019-03-23T06:15:57.666Z,0.50
2019-03-23T06:18:26.067Z,0.60
2019-03-23T06:20:54.470Z,0.70
2019-03-23T06:23:22.991Z,0.80
2019-03-23T06:25:51.388Z,0.90
2019-03-23T06:28:19.834Z,1.00
2019-03-23T06:30:48.558Z,1.10
2019-03-23T06:33:16.959Z,1.30
2019-03-23T06:35:45.364Z,1.50
2019-03-23T06:38:16.210Z,1.60
2019-03-23T06:40:44.232Z,1.80
2019-03-23T06:43:12.711Z,1.90
2019-03-23T06:45:41.127Z,2.10
2019-03-23T06:48:09.541Z,2.20
2019-03-23T06:50:37.958Z,2.40
2019-03-23T06:53:06.371Z,2.50
2019-03-23T06:55:34.880Z,2.60
2019-03-23T06:58:03.285Z,2.80
2019-03-23T07:00:31.871Z,2.80
2019-03-23T07:03:00.271Z,3.00
2019-03-23T07:05:28.740Z,3.10
2019-03-23T07:08:16.562Z,3.30
2019-03-23T07:10:44.963Z,3.40
2019-03-23T07:13:13.413Z,3.60
2019-03-23T07:15:41.815Z,3.70
2019-03-23T07:18:10.223Z,3.90
2019-03-23T07:20:38.626Z,4.00
2019-03-23T07:23:07.413Z,4.20
2019-03-23T07:25:35.810Z,4.50
2019-03-23T07:28:04.266Z,4.70
2019-03-23T07:30:32.679Z,4.80
2019-03-23T07:33:01.111Z,5.00
2019-03-23T07:35:29.531Z,5.20
2019-03-23T07:37:57.932Z,5.40
2019-03-23T07:40:26.418Z,5.60
2019-03-23T07:42:54.827Z,5.80
2019-03-23T07:45:23.299Z,6.00
2019-03-23T07:47:51.694Z,6.10
2019-03-23T07:50:20.135Z,6.30
2019-03-23T07:52:48.564Z,6.50
2019-03-23T07:55:17.422Z,6.70
2019-03-23T07:57:45.835Z,6.80
2019-03-23T08:00:20.232Z,7.00
2019-03-23T08:02:48.754Z,7.20
2019-03-23T08:05:17.226Z,7.40
2019-03-23T08:07:45.700Z,7.60
2019-03-23T08:10:33.302Z,7.80
2019-03-23T08:13:01.845Z,8.00
2019-03-23T08:15:30.784Z,8.10
2019-03-23T08:17:59.824Z,8.30
2019-03-23T08:20:28.366Z,8.50
2019-03-23T08:22:56.775Z,8.70
2019-03-23T08:25:25.240Z,8.90
2019-03-23T08:27:53.733Z,9.10
2019-03-23T08:30:22.149Z,9.40
2019-03-23T08:32:50.617Z,9.60
2019-03-23T08:35:19.054Z,9.80
2019-03-23T08:37:47.553Z,10.00
2019-03-23T08:40:16.244Z,10.10
2019-03-23T08:42:44.649Z,10.20
2019-03-23T08:45:13.318Z,10.30
2019-03-23T08:47:41.770Z,10.50
2019-03-23T08:50:10.419Z,10.60
2019-03-23T08:52:38.882Z,10.80
2019-03-23T08:55:07.370Z,11.00
2019-03-23T08:57:35.811Z,11.10
2019-03-23T09:00:06.944Z,11.20
2019-03-23T09:02:35.906Z,11.30
2019-03-23T09:05:05.860Z,11.50
2019-03-23T09:07:34.385Z,11.60
2019-03-23T09:10:03.950Z,11.70
2019-03-23T09:12:32.376Z,11.90
2019-03-23T09:15:00.898Z,12.00
2019-03-23T09:17:29.331Z,12.10
2019-03-23T09:19:57.730Z,12.20
2019-03-23T09:22:26.126Z,12.30
2019-03-23T09:24:57.132Z,12.40
2019-03-23T09:27:24.686Z,12.50
2019-03-23T09:29:53.101Z,12.50
2019-03-23T09:32:21.718Z,12.60
2019-03-23T09:34:50.313Z,12.60
2019-03-23T09:37:18.847Z,12.60
2019-03-23T09:39:47.294Z,12.70
2019-03-23T09:42:15.762Z,12.80
2019-03-23T09:44:44.195Z,12.90
2019-03-23T09:47:12.610Z,13.00
2019-03-23T09:49:41.062Z,13.00
2019-03-23T09:52:09.466Z,13.10
2019-03-23T09:54:38.367Z,13.10
2019-03-23T09:57:06.766Z,13.20
2019-03-23T09:59:35.235Z,13.30
2019-03-23T10:02:03.833Z,13.40
2019-03-23T10:04:32.322Z,13.50
2019-03-23T10:07:00.746Z,13.60
2019-03-23T10:09:29.310Z,13.60
2019-03-23T10:11:59.261Z,13.70
2019-03-23T10:14:27.784Z,13.80
2019-03-23T10:16:56.200Z,13.80
2019-03-23T10:19:24.970Z,13.90
2019-03-23T10:21:53.367Z,14.00
2019-03-23T10:24:21.786Z,14.10
2019-03-23T10:26:52.118Z,14.10
2019-03-23T10:29:20.345Z,14.20
2019-03-23T10:31:48.758Z,14.20
2019-03-23T10:34:17.161Z,14.30
2019-03-23T10:36:45.582Z,14.30
2019-03-23T10:39:14.068Z,14.30
2019-03-23T10:41:42.481Z,14.40
2019-03-23T10:44:11.042Z,14.40
2019-03-23T10:46:39.530Z,14.40
2019-03-23T10:49:08.191Z,14.50
2019-03-23T10:51:36.588Z,14.60
2019-03-23T10:54:05.090Z,14.60
2019-03-23T10:56:33.499Z,14.70
2019-03-23T10:59:01.909Z,14.70
2019-03-23T11:01:30.437Z,14.80
2019-03-23T11:03:58.807Z,14.80
2019-03-23T11:06:27.210Z,14.80
2019-03-23T11:08:55.621Z,14.90
2019-03-23T11:11:24.027Z,14.80
2019-03-23T11:13:52.506Z,14.90
2019-03-23T11:16:21.010Z,14.90
2019-03-23T11:18:49.452Z,15.00
2019-03-23T11:21:17.850Z,15.00
2019-03-23T11:23:46.262Z,15.10
2019-03-23T11:26:14.680Z,15.10
2019-03-23T11:28:43.146Z,15.20
2019-03-23T11:31:11.662Z,15.30
2019-03-23T11:33:40.130Z,15.40
2019-03-23T11:36:08.523Z,15.40
2019-03-23T11:38:37.011Z,15.50
2019-03-23T11:41:05.415Z,15.50
2019-03-23T11:43:34.864Z,15.60
2019-03-23T11:46:03.227Z,15.60
2019-03-23T11:48:31.640Z,15.70
2019-03-23T11:51:00.052Z,15.80
2019-03-23T11:53:28.445Z,15.80
2019-03-23T11:55:56.908Z,15.90
2019-03-23T11:58:26.231Z,15.90
2019-03-23T12:00:54.665Z,16.00
2019-03-23T12:03:23.235Z,16.00
2019-03-23T12:05:51.651Z,16.10
2019-03-23T12:08:20.084Z,16.00
2019-03-23T12:10:48.492Z,16.00
2019-03-23T12:13:17.012Z,16.10
2019-03-23T12:15:45.558Z,16.10
2019-03-23T12:18:13.985Z,16.10
2019-03-23T12:20:42.423Z,16.10
2019-03-23T12:23:10.929Z,16.20
2019-03-23T12:25:39.431Z,16.20
2019-03-23T12:28:07.823Z,16.20
2019-03-23T12:30:36.243Z,16.30
2019-03-23T12:33:04.745Z,16.30
2019-03-23T12:35:33.466Z,16.40
2019-03-23T12:38:01.872Z,16.40
2019-03-23T12:40:30.281Z,16.50
2019-03-23T12:42:59.220Z,16.50
2019-03-23T12:45:27.624Z,16.50
2019-03-23T12:47:56.792Z,16.50
2019-03-23T12:50:25.228Z,16.50
2019-03-23T12:52:53.606Z,16.60
2019-03-23T12:55:22.063Z,16.60
2019-03-23T12:57:50.871Z,16.60
2019-03-23T13:00:19.716Z,16.70
2019-03-23T13:02:48.120Z,16.70
2019-03-23T13:05:16.534Z,16.70
2019-03-23T13:07:45.022Z,16.70
2019-03-23T13:10:14.381Z,16.80
2019-03-23T13:12:42.780Z,16.80
2019-03-23T13:15:13.702Z,16.80
2019-03-23T13:17:42.199Z,16.90
2019-03-23T13:20:11.518Z,16.90
2019-03-23T13:22:40.066Z,17.00
2019-03-23T13:25:09.228Z,17.10
2019-03-23T13:27:57.057Z,17.10
2019-03-23T13:30:25.458Z,17.10
2019-03-23T13:32:53.983Z,17.20
2019-03-23T13:35:22.451Z,17.20
2019-03-23T13:37:50.878Z,17.20
2019-03-23T13:40:19.279Z,17.20
2019-03-23T13:42:47.753Z,17.20
2019-03-23T13:45:16.739Z,17.30
2019-03-23T13:47:45.182Z,17.30
2019-03-23T13:50:15.680Z,17.30
2019-03-23T13:52:44.163Z,17.30
2019-03-23T13:55:46.328Z,17.40
2019-03-23T13:58:15.404Z,17.50
2019-03-23T14:00:43.842Z,17.50
2019-03-23T14:03:12.499Z,17.50
2019-03-23T14:05:40.988Z,17.40
2019-03-23T14:08:09.411Z,17.40
2019-03-23T14:10:37.895Z,17.40
2019-03-23T14:13:06.409Z,17.50
2019-03-23T14:15:34.847Z,17.50
2019-03-23T14:18:03.248Z,17.60
2019-03-23T14:20:31.854Z,17.60
2019-03-23T14:23:02.916Z,17.70
2019-03-23T14:25:30.398Z,17.70
2019-03-23T14:27:58.798Z,17.80
2019-03-23T14:30:27.219Z,17.80
2019-03-23T14:32:55.627Z,17.80
2019-03-23T14:35:24.044Z,17.80
2019-03-23T14:37:52.746Z,17.90
2019-03-23T14:40:41.431Z,17.90
2019-03-23T14:43:09.947Z,18.00
2019-03-23T14:45:38.370Z,18.00
2019-03-23T14:48:06.781Z,18.10
2019-03-23T14:50:35.281Z,18.10
2019-03-23T14:53:03.693Z,18.10
2019-03-23T14:55:32.123Z,18.20
2019-03-23T14:58:01.490Z,18.20
2019-03-23T15:00:31.544Z,18.20
2019-03-23T15:02:59.959Z,18.30
2019-03-23T15:05:29.669Z,18.30
2019-03-23T15:07:58.068Z,18.30
2019-03-23T15:10:26.470Z,18.30
2019-03-23T15:12:54.891Z,18.40
2019-03-23T15:15:23.313Z,18.40
2019-03-23T15:17:51.866Z,18.50
2019-03-23T15:20:20.378Z,18.50
2019-03-23T15:22:48.999Z,18.50
2019-03-23T15:25:17.417Z,18.50
2019-03-23T15:27:46.106Z,18.50
2019-03-23T15:30:14.661Z,18.50
2019-03-23T15:32:43.060Z,18.50
2019-03-23T15:35:30.832Z,18.50
2019-03-23T15:37:59.225Z,18.50
2019-03-23T15:40:27.635Z,18.70
2019-03-23T15:42:56.075Z,18.90
2019-03-23T15:45:25.047Z,19.10
2019-03-23T15:47:53.450Z,19.30
2019-03-23T15:50:21.893Z,19.40
2019-03-23T15:52:50.290Z,19.50
2019-03-23T15:55:18.710Z,19.50
2019-03-23T15:57:47.144Z,19.60
2019-03-23T16:00:15.638Z,19.60
2019-03-23T16:02:44.072Z,19.50
2019-03-23T16:05:12.581Z,19.50
2019-03-23T16:07:41.498Z,19.50
2019-03-23T16:10:10.242Z,19.50
2019-03-23T16:12:38.657Z,19.40
2019-03-23T16:15:09.905Z,19.40
2019-03-23T16:17:39.625Z,19.30
2019-03-23T16:20:12.200Z,19.20
2019-03-23T16:22:41.047Z,19.10
2019-03-23T16:25:10.161Z,18.90
2019-03-23T16:27:38.575Z,18.90
2019-03-23T16:30:09.391Z,18.80
2019-03-23T16:32:37.801Z,18.60
2019-03-23T16:35:07.144Z,18.50
2019-03-23T16:37:35.649Z,18.20
2019-03-23T16:40:06.642Z,17.90
2019-03-23T16:42:44.545Z,17.60
2019-03-23T16:45:08.621Z,17.30
2019-03-23T16:47:37.247Z,17.00
2019-03-23T16:50:08.287Z,16.80
2019-03-23T16:52:38.119Z,16.60
2019-03-23T16:55:10.169Z,16.40
2019-03-23T16:57:38.567Z,16.20
2019-03-23T17:00:09.367Z,16.10
2019-03-23T17:02:37.854Z,16.00
2019-03-23T17:05:06.813Z,15.90
2019-03-23T17:07:36.473Z,15.70
2019-03-23T17:10:06.418Z,15.60
2019-03-23T17:12:34.929Z,15.50
2019-03-23T17:15:05.389Z,15.30
2019-03-23T17:17:33.808Z,15.20
2019-03-23T17:20:02.250Z,15.10
2019-03-23T17:22:30.683Z,14.90
2019-03-23T17:24:59.250Z,14.80
2019-03-23T17:27:28.130Z,14.70
2019-03-23T17:29:56.550Z,14.50
2019-03-23T17:32:25.028Z,14.30
2019-03-23T17:34:53.534Z,14.10
2019-03-23T17:37:21.938Z,14.00
2019-03-23T17:39:50.361Z,13.80
2019-03-23T17:42:18.766Z,13.60
2019-03-23T17:44:47.200Z,13.50
2019-03-23T17:47:15.711Z,13.20
2019-03-23T17:49:44.111Z,13.00
2019-03-23T17:52:12.522Z,12.70
2019-03-23T17:54:40.938Z,12.40
2019-03-23T17:57:09.364Z,12.10
2019-03-23T17:59:37.745Z,11.90
2019-03-23T18:02:06.518Z,11.60
2019-03-23T18:04:34.917Z,11.40
2019-03-23T18:07:03.317Z,11.10
2019-03-23T18:09:31.818Z,10.80
2019-03-23T18:12:00.218Z,10.60
2019-03-23T18:14:28.625Z,10.40
2019-03-23T18:16:57.065Z,10.10
2019-03-23T18:19:25.486Z,9.90
2019-03-23T18:21:53.905Z,9.70
2019-03-23T18:24:22.299Z,9.50
2019-03-23T18:26:50.726Z,9.40
2019-03-23T18:29:19.117Z,9.20
2019-03-23T18:31:47.912Z,9.00
2019-03-23T18:34:16.322Z,8.90
2019-03-23T18:36:45.000Z,8.80
2019-03-23T18:39:14.938Z,8.60
2019-03-23T18:41:43.350Z,8.50
2019-03-23T18:44:16.136Z,8.40
2019-03-23T18:46:42.122Z,8.30
2019-03-23T18:49:10.545Z,8.20
2019-03-23T18:51:38.963Z,8.10
2019-03-23T18:54:07.401Z,8.00
2019-03-23T18:56:35.802Z,7.90
2019-03-23T18:59:04.194Z,7.80
2019-03-23T19:01:39.131Z,7.70
2019-03-23T19:04:07.536Z,7.60
2019-03-23T19:06:35.958Z,7.50
2019-03-23T19:09:06.766Z,7.40
2019-03-23T19:11:35.202Z,7.30
2019-03-23T19:14:03.768Z,7.20
2019-03-23T19:16:32.196Z,7.30
2019-03-23T19:19:00.660Z,7.00
2019-03-23T19:21:29.054Z,6.90
2019-03-23T19:23:57.478Z,6.80
2019-03-23T19:26:25.887Z,6.70
2019-03-23T19:28:54.298Z,6.70
2019-03-23T19:31:23.670Z,6.60
2019-03-23T19:33:52.235Z,6.50
2019-03-23T19:36:20.640Z,6.40
2019-03-23T19:38:49.095Z,6.40
2019-03-23T19:41:17.592Z,6.30
2019-03-23T19:46:16.052Z,6.20
2019-03-23T19:48:44.485Z,6.10
2019-03-23T19:51:12.894Z,6.10
2019-03-23T19:53:41.292Z,6.00
2019-03-23T19:56:09.986Z,5.90
2019-03-23T19:58:38.387Z,5.90
2019-03-23T20:01:06.791Z,5.90
2019-03-23T20:03:35.204Z,5.80
2019-03-23T20:06:03.631Z,5.80
2019-03-23T20:08:32.098Z,5.80
2019-03-23T20:11:00.481Z,5.70
2019-03-23T20:13:29.378Z,5.70
2019-03-23T20:15:57.807Z,5.70
2019-03-23T20:18:26.286Z,5.60
2019-03-23T20:21:08.077Z,5.60
2019-03-23T20:23:36.708Z,5.50
2019-03-23T20:26:05.140Z,5.40
2019-03-23T20:28:33.603Z,5.40
2019-03-23T20:31:02.067Z,5.30
2019-03-23T20:33:30.450Z,5.30
2019-03-23T20:35:59.779Z,5.30
2019-03-23T20:38:35.898Z,5.30
2019-03-23T20:41:04.328Z,5.30
2019-03-23T20:43:32.757Z,5.30
2019-03-23T20:46:01.625Z,5.30
2019-03-23T20:48:30.144Z,5.30
2019-03-23T20:50:58.531Z,5.30
2019-03-23T20:53:27.179Z,5.20
2019-03-23T20:55:55.577Z,5.10
2019-03-23T20:58:23.994Z,5.10
2019-03-23T21:00:52.415Z,5.10
2019-03-23T21:03:20.822Z,5.00
2019-03-23T21:05:49.244Z,5.00
2019-03-23T21:08:17.937Z,5.00
2019-03-23T21:10:46.377Z,5.00
2019-03-23T21:13:15.020Z,4.90
2019-03-23T21:15:43.483Z,5.00
2019-03-23T21:18:11.887Z,4.90
2019-03-23T21:20:40.296Z,4.90
2019-03-23T21:23:08.959Z,4.80
2019-03-23T21:25:37.422Z,4.80
2019-03-23T21:28:05.810Z,4.80
2019-03-23T21:30:34.220Z,4.70
2019-03-23T21:33:02.666Z,4.70
2019-03-23T21:35:31.059Z,4.70
2019-03-23T21:37:59.475Z,4.60
2019-03-23T21:40:27.883Z,4.60
2019-03-23T21:42:56.286Z,4.60
2019-03-23T21:45:24.854Z,4.50
2019-03-23T21:47:53.267Z,4.50
2019-03-23T21:50:21.673Z,4.40
2019-03-23T21:52:50.173Z,4.40
2019-03-23T21:55:18.552Z,4.40
2019-03-23T21:57:46.992Z,4.40
2019-03-23T22:00:18.465Z,4.30
2019-03-23T22:02:55.690Z,4.30
2019-03-23T22:05:24.087Z,4.20
2019-03-23T22:07:52.483Z,4.20
2019-03-23T22:10:20.931Z,4.20
2019-03-23T22:12:49.391Z,4.20
2019-03-23T22:15:18.122Z,4.20
2019-03-23T22:17:46.521Z,4.20
2019-03-23T22:20:14.918Z,4.10
2019-03-23T22:22:43.314Z,4.00
2019-03-23T22:25:11.823Z,4.00
2019-03-23T22:27:40.213Z,3.90
2019-03-23T22:30:11.160Z,3.90
2019-03-23T22:32:39.554Z,3.80
2019-03-23T22:35:08.586Z,3.80
2019-03-23T22:37:37.045Z,3.80
2019-03-23T22:40:09.553Z,3.80
2019-03-23T22:42:37.959Z,3.80
2019-03-23T22:45:08.173Z,3.70
2019-03-23T22:47:36.849Z,3.60
2019-03-23T22:50:09.122Z,3.60
2019-03-23T22:52:37.599Z,3.60
2019-03-23T22:55:07.043Z,3.50
2019-03-23T22:57:35.443Z,3.50
2019-03-23T23:00:06.464Z,3.50
2019-03-23T23:02:35.156Z,3.50
2019-03-23T23:05:08.774Z,3.50
2019-03-23T23:07:37.170Z,3.40
2019-03-23T23:10:07.630Z,3.40
2019-03-23T23:12:36.058Z,3.30
2019-03-23T23:15:06.489Z,3.30
2019-03-23T23:17:34.897Z,3.20
2019-03-23T23:20:05.614Z,3.20
2019-03-23T23:22:34.009Z,3.20
2019-03-23T23:25:02.891Z,3.20
2019-03-23T23:27:31.386Z,3.20
2019-03-23T23:29:59.814Z,3.10
2019-03-23T23:32:28.206Z,3.10
2019-03-23T23:34:56.597Z,3.00
2019-03-23T23:37:25.010Z,3.00
2019-03-23T23:39:53.402Z,3.00
2019-03-23T23:42:21.810Z,3.00
2019-03-23T23:44:50.202Z,3.00
2019-03-23T23:47:18.602Z,3.00
2019-03-23T23:49:47.019Z,3.00
2019-03-23T23:52:15.414Z,2.90
2019-03-23T23:54:43.801Z,2.90
2019-03-23T23:57:12.237Z,2.90
2019-03-23T23:59:40.636Z,2.80
